sensor_id;sensor_type;location;lat;lon;timestamp;pressure;altitude;pressure_sealevel;temperature;humidity
23176;BME280;19910;42.652;23.332;2023-05-20T00:00:13;94935.88;;;11.02;100.00
23176;BME280;19910;42.652;23.332;2023-05-20T00:02:39;94938.75;;;11.06;100.00
23176;BME280;19910;42.652;23.332;2023-05-20T00:05:07;94938.41;;;11.07;100.00
23176;BME280;19910;42.652;23.332;2023-05-20T00:07:34;94933.50;;;11.00;100.00
23176;BME280;19910;42.652;23.332;2023-05-20T00:10:00;94940.69;;;10.71;100.00
23176;BME280;19910;42.652;23.332;2023-05-20T00:12:27;94947.56;;;10.77;100.00
23176;BME280;19910;42.652;23.332;2023-05-20T00:14:54;94942.75;;;10.82;100.00
23176;BME280;19910;42.652;23.332;2023-05-20T00:17:22;94938.78;;;10.80;100.00
23176;BME280;19910;42.652;23.332;2023-05-20T00:19:50;94945.00;;;10.80;100.00
23176;BME280;19910;42.652;23.332;2023-05-20T00:22:17;94938.78;;;10.80;100.00
23176;BME280;19910;42.652;23.332;2023-05-20T00:24:44;94941.47;;;10.80;100.00
23176;BME280;19910;42.652;23.332;2023-05-20T00:27:10;94942.28;;;10.72;100.00
23176;BME280;19910;42.652;23.332;2023-05-20T00:29:37;94925.09;;;10.67;100.00
23176;BME280;19910;42.652;23.332;2023-05-20T00:32:04;94932.09;;;10.68;100.00
23176;BME280;19910;42.652;23.332;2023-05-20T00:34:33;94925.75;;;10.64;100.00
23176;BME280;19910;42.652;23.332;2023-05-20T00:37:00;94916.81;;;10.47;100.00
23176;BME280;19910;42.652;23.332;2023-05-20T00:39:26;94914.44;;;10.37;100.00
23176;BME280;19910;42.652;23.332;2023-05-20T00:41:54;94925.28;;;10.37;100.00
23176;BME280;19910;42.652;23.332;2023-05-20T00:44:24;94922.06;;;10.26;100.00
23176;BME280;19910;42.652;23.332;2023-05-20T00:46:51;94906.00;;;10.21;100.00
23176;BME280;19910;42.652;23.332;2023-05-20T00:49:18;94912.53;;;10.20;100.00
23176;BME280;19910;42.652;23.332;2023-05-20T00:51:48;94907.09;;;10.20;100.00
23176;BME280;19910;42.652;23.332;2023-05-20T00:54:15;94911.72;;;10.28;100.00
23176;BME280;19910;42.652;23.332;2023-05-20T00:56:42;94916.03;;;10.20;100.00
23176;BME280;19910;42.652;23.332;2023-05-20T00:59:09;94899.28;;;10.27;100.00
23176;BME280;19910;42.652;23.332;2023-05-20T01:01:36;94898.19;;;10.28;100.00
23176;BME280;19910;42.652;23.332;2023-05-20T01:04:03;94895.47;;;10.28;100.00
23176;BME280;19910;42.652;23.332;2023-05-20T01:06:29;94907.25;;;10.32;100.00
23176;BME280;19910;42.652;23.332;2023-05-20T01:08:59;94901.06;;;10.31;100.00
23176;BME280;19910;42.652;23.332;2023-05-20T01:11:30;94898.84;;;10.25;100.00
23176;BME280;19910;42.652;23.332;2023-05-20T01:14:02;94909.81;;;10.20;100.00
23176;BME280;19910;42.652;23.332;2023-05-20T01:16:29;94914.91;;;10.30;100.00
23176;BME280;19910;42.652;23.332;2023-05-20T01:18:58;94906.47;;;10.23;100.00
23176;BME280;19910;42.652;23.332;2023-05-20T01:21:29;94920.03;;;10.23;100.00
23176;BME280;19910;42.652;23.332;2023-05-20T01:23:57;94924.94;;;10.21;100.00
23176;BME280;19910;42.652;23.332;2023-05-20T01:26:26;94917.41;;;10.18;100.00
23176;BME280;19910;42.652;23.332;2023-05-20T01:28:53;94923.22;;;10.25;100.00
23176;BME280;19910;42.652;23.332;2023-05-20T01:31:23;94916.44;;;10.14;100.00
23176;BME280;19910;42.652;23.332;2023-05-20T01:33:54;94924.88;;;10.12;100.00
23176;BME280;19910;42.652;23.332;2023-05-20T01:36:22;94925.69;;;9.95;100.00
23176;BME280;19910;42.652;23.332;2023-05-20T01:38:52;94894.28;;;9.86;100.00
23176;BME280;19910;42.652;23.332;2023-05-20T01:41:22;94909.28;;;10.01;100.00
23176;BME280;19910;42.652;23.332;2023-05-20T01:43:50;94911.34;;;10.04;100.00
23176;BME280;19910;42.652;23.332;2023-05-20T01:46:17;94906.75;;;10.04;100.00
23176;BME280;19910;42.652;23.332;2023-05-20T01:48:44;94905.03;;;10.34;100.00
23176;BME280;19910;42.652;23.332;2023-05-20T01:51:11;94896.75;;;10.22;100.00
23176;BME280;19910;42.652;23.332;2023-05-20T01:53:37;94900.59;;;10.21;100.00
23176;BME280;19910;42.652;23.332;2023-05-20T01:56:05;94896.88;;;10.08;100.00
23176;BME280;19910;42.652;23.332;2023-05-20T01:58:33;94909.94;;;10.06;100.00
23176;BME280;19910;42.652;23.332;2023-05-20T02:00:59;94898.97;;;10.11;100.00
23176;BME280;19910;42.652;23.332;2023-05-20T02:03:27;94902.97;;;10.22;100.00
23176;BME280;19910;42.652;23.332;2023-05-20T02:05:54;94894.06;;;10.22;100.00
23176;BME280;19910;42.652;23.332;2023-05-20T02:08:21;94899.16;;;10.23;100.00
23176;BME280;19910;42.652;23.332;2023-05-20T02:10:48;94897.41;;;10.19;100.00
23176;BME280;19910;42.652;23.332;2023-05-20T02:13:15;94898.47;;;10.18;100.00
23176;BME280;19910;42.652;23.332;2023-05-20T02:15:43;94886.41;;;10.24;100.00
23176;BME280;19910;42.652;23.332;2023-05-20T02:18:10;94893.25;;;10.30;100.00
23176;BME280;19910;42.652;23.332;2023-05-20T02:20:38;94906.47;;;10.23;100.00
23176;BME280;19910;42.652;23.332;2023-05-20T02:23:05;94905.50;;;10.19;100.00
23176;BME280;19910;42.652;23.332;2023-05-20T02:25:33;94902.94;;;10.05;100.00
23176;BME280;19910;42.652;23.332;2023-05-20T02:27:59;94900.06;;;10.10;100.00
23176;BME280;19910;42.652;23.332;2023-05-20T02:30:30;94896.56;;;10.10;100.00
23176;BME280;19910;42.652;23.332;2023-05-20T02:32:58;94890.81;;;10.03;100.00
23176;BME280;19910;42.652;23.332;2023-05-20T02:35:24;94891.13;;;10.01;100.00
23176;BME280;19910;42.652;23.332;2023-05-20T02:37:51;94884.44;;;9.98;100.00
23176;BME280;19910;42.652;23.332;2023-05-20T02:40:18;94887.94;;;9.99;100.00
23176;BME280;19910;42.652;23.332;2023-05-20T02:42:45;94892.56;;;9.98;100.00
23176;BME280;19910;42.652;23.332;2023-05-20T02:45:12;94890.66;;;9.90;100.00
23176;BME280;19910;42.652;23.332;2023-05-20T02:47:38;94895.88;;;9.87;100.00
23176;BME280;19910;42.652;23.332;2023-05-20T02:50:07;94895.75;;;9.83;100.00
23176;BME280;19910;42.652;23.332;2023-05-20T02:52:34;94887.16;;;9.81;100.00
23176;BME280;19910;42.652;23.332;2023-05-20T02:55:01;94898.28;;;9.88;100.00
23176;BME280;19910;42.652;23.332;2023-05-20T02:57:28;94887.47;;;9.88;100.00
23176;BME280;19910;42.652;23.332;2023-05-20T02:59:55;94890.66;;;9.90;100.00
23176;BME280;19910;42.652;23.332;2023-05-20T03:02:22;94890.03;;;9.93;100.00
23176;BME280;19910;42.652;23.332;2023-05-20T03:04:49;94892.56;;;9.98;100.00
23176;BME280;19910;42.652;23.332;2023-05-20T03:07:19;94891.63;;;10.12;100.00
23176;BME280;19910;42.652;23.332;2023-05-20T03:09:46;94896.09;;;10.08;100.00
23176;BME280;19910;42.652;23.332;2023-05-20T03:12:13;94895.00;;;10.35;100.00
23176;BME280;19910;42.652;23.332;2023-05-20T03:14:40;94884.00;;;10.48;100.00
23176;BME280;19910;42.652;23.332;2023-05-20T03:17:07;94903.34;;;11.02;99.04
23176;BME280;19910;42.652;23.332;2023-05-20T03:19:34;94906.19;;;11.14;97.14
23176;BME280;19910;42.652;23.332;2023-05-20T03:22:01;94908.19;;;11.64;95.17
23176;BME280;19910;42.652;23.332;2023-05-20T03:24:29;94903.50;;;11.82;92.48
23176;BME280;19910;42.652;23.332;2023-05-20T03:26:56;94910.00;;;11.89;91.35
23176;BME280;19910;42.652;23.332;2023-05-20T03:29:23;94904.72;;;12.76;90.91
23176;BME280;19910;42.652;23.332;2023-05-20T03:31:49;94899.13;;;13.38;86.88
23176;BME280;19910;42.652;23.332;2023-05-20T03:34:16;94889.44;;;14.26;83.39
23176;BME280;19910;42.652;23.332;2023-05-20T03:36:43;94892.06;;;14.90;80.63
23176;BME280;19910;42.652;23.332;2023-05-20T03:39:10;94900.84;;;15.55;77.04
23176;BME280;19910;42.652;23.332;2023-05-20T03:41:38;94903.44;;;15.99;73.23
23176;BME280;19910;42.652;23.332;2023-05-20T03:44:05;94891.06;;;16.75;71.75
23176;BME280;19910;42.652;23.332;2023-05-20T03:46:32;94891.28;;;17.05;71.50
23176;BME280;19910;42.652;23.332;2023-05-20T03:48:58;94896.44;;;17.52;70.20
23176;BME280;19910;42.652;23.332;2023-05-20T03:51:26;94899.75;;;17.61;68.48
23176;BME280;19910;42.652;23.332;2023-05-20T03:53:53;94890.75;;;18.63;67.08
23176;BME280;19910;42.652;23.332;2023-05-20T03:56:19;94902.66;;;17.95;66.13
23176;BME280;19910;42.652;23.332;2023-05-20T03:58:48;94894.91;;;19.13;63.11
23176;BME280;19910;42.652;23.332;2023-05-20T04:01:14;94893.28;;;19.08;63.04
23176;BME280;19910;42.652;23.332;2023-05-20T04:03:41;94893.13;;;19.31;61.59
23176;BME280;19910;42.652;23.332;2023-05-20T04:06:08;94895.34;;;19.52;61.49
23176;BME280;19910;42.652;23.332;2023-05-20T04:08:35;94898.44;;;20.42;60.06
23176;BME280;19910;42.652;23.332;2023-05-20T04:11:02;94915.88;;;20.61;57.91
23176;BME280;19910;42.652;23.332;2023-05-20T04:13:29;94900.34;;;21.07;56.58
23176;BME280;19910;42.652;23.332;2023-05-20T04:15:57;94905.22;;;21.42;55.00
23176;BME280;19910;42.652;23.332;2023-05-20T04:18:24;94911.59;;;21.71;53.73
23176;BME280;19910;42.652;23.332;2023-05-20T04:20:54;94898.19;;;21.98;53.01
23176;BME280;19910;42.652;23.332;2023-05-20T04:23:21;94899.78;;;22.31;51.57
23176;BME280;19910;42.652;23.332;2023-05-20T04:25:48;94901.28;;;22.89;50.83
23176;BME280;19910;42.652;23.332;2023-05-20T04:28:15;94903.09;;;23.24;50.25
23176;BME280;19910;42.652;23.332;2023-05-20T04:30:41;94889.28;;;23.27;50.63
23176;BME280;19910;42.652;23.332;2023-05-20T04:33:11;94886.28;;;24.25;48.44
23176;BME280;19910;42.652;23.332;2023-05-20T04:35:39;94888.94;;;24.77;46.74
23176;BME280;19910;42.652;23.332;2023-05-20T04:38:07;94897.09;;;24.95;46.30
23176;BME280;19910;42.652;23.332;2023-05-20T04:40:33;94890.78;;;25.28;45.68
23176;BME280;19910;42.652;23.332;2023-05-20T04:43:00;94886.47;;;26.35;43.23
23176;BME280;19910;42.652;23.332;2023-05-20T04:45:28;94893.75;;;25.98;43.23
23176;BME280;19910;42.652;23.332;2023-05-20T04:47:55;94898.25;;;25.62;43.40
23176;BME280;19910;42.652;23.332;2023-05-20T04:50:23;94903.56;;;25.79;43.17
23176;BME280;19910;42.652;23.332;2023-05-20T04:52:50;94908.59;;;25.58;42.80
23176;BME280;19910;42.652;23.332;2023-05-20T04:55:17;94907.75;;;25.30;44.15
23176;BME280;19910;42.652;23.332;2023-05-20T04:57:45;94906.00;;;25.13;44.58
23176;BME280;19910;42.652;23.332;2023-05-20T05:00:13;94899.78;;;25.66;44.28
23176;BME280;19910;42.652;23.332;2023-05-20T05:02:40;94899.06;;;25.89;43.57
23176;BME280;19910;42.652;23.332;2023-05-20T05:05:08;94902.13;;;26.68;42.26
23176;BME280;19910;42.652;23.332;2023-05-20T05:07:36;94900.31;;;27.44;41.23
23176;BME280;19910;42.652;23.332;2023-05-20T05:10:03;94897.94;;;27.63;40.28
23176;BME280;19910;42.652;23.332;2023-05-20T05:12:30;94898.91;;;26.93;41.23
23176;BME280;19910;42.652;23.332;2023-05-20T05:14:56;94904.75;;;27.78;39.26
23176;BME280;19910;42.652;23.332;2023-05-20T05:17:23;94908.41;;;27.75;39.55
23176;BME280;19910;42.652;23.332;2023-05-20T05:19:50;94911.97;;;28.76;37.78
23176;BME280;19910;42.652;23.332;2023-05-20T05:22:17;94896.81;;;28.45;37.92
23176;BME280;19910;42.652;23.332;2023-05-20T05:24:45;94892.19;;;28.06;39.00
23176;BME280;19910;42.652;23.332;2023-05-20T05:27:12;94898.72;;;28.96;37.37
23176;BME280;19910;42.652;23.332;2023-05-20T05:29:38;94902.28;;;27.24;40.26
23176;BME280;19910;42.652;23.332;2023-05-20T05:32:06;94888.66;;;28.54;39.05
23176;BME280;19910;42.652;23.332;2023-05-20T05:34:32;94884.59;;;29.45;36.66
23176;BME280;19910;42.652;23.332;2023-05-20T05:36:59;94882.09;;;29.76;36.54
23176;BME280;19910;42.652;23.332;2023-05-20T05:39:26;94877.94;;;29.81;36.52
23176;BME280;19910;42.652;23.332;2023-05-20T05:41:54;94885.34;;;30.00;36.61
23176;BME280;19910;42.652;23.332;2023-05-20T05:44:21;94880.19;;;30.11;34.19
23176;BME280;19910;42.652;23.332;2023-05-20T05:46:48;94880.41;;;30.29;33.73
23176;BME280;19910;42.652;23.332;2023-05-20T05:49:15;94875.88;;;30.70;33.49
23176;BME280;19910;42.652;23.332;2023-05-20T05:51:41;94891.84;;;29.14;34.68
23176;BME280;19910;42.652;23.332;2023-05-20T05:54:08;94883.78;;;29.99;34.41
23176;BME280;19910;42.652;23.332;2023-05-20T05:56:35;94887.72;;;30.01;33.92
23176;BME280;19910;42.652;23.332;2023-05-20T05:59:03;94881.06;;;29.83;34.25
23176;BME280;19910;42.652;23.332;2023-05-20T06:01:30;94881.09;;;28.02;37.54
23176;BME280;19910;42.652;23.332;2023-05-20T06:03:57;94889.72;;;27.55;38.26
23176;BME280;19910;42.652;23.332;2023-05-20T06:06:23;94884.09;;;27.39;38.79
23176;BME280;19910;42.652;23.332;2023-05-20T06:08:50;94878.88;;;28.13;37.53
23176;BME280;19910;42.652;23.332;2023-05-20T06:11:17;94881.56;;;28.17;37.04
23176;BME280;19910;42.652;23.332;2023-05-20T06:13:45;94873.13;;;28.98;36.12
23176;BME280;19910;42.652;23.332;2023-05-20T06:16:13;94878.22;;;27.53;38.15
23176;BME280;19910;42.652;23.332;2023-05-20T06:18:39;94863.22;;;27.11;39.67
23176;BME280;19910;42.652;23.332;2023-05-20T06:21:06;94866.41;;;28.18;37.61
23176;BME280;19910;42.652;23.332;2023-05-20T06:23:33;94867.06;;;29.16;35.55
23176;BME280;19910;42.652;23.332;2023-05-20T06:26:01;94871.97;;;29.53;35.67
23176;BME280;19910;42.652;23.332;2023-05-20T06:28:28;94870.41;;;29.11;36.77
23176;BME280;19910;42.652;23.332;2023-05-20T06:30:56;94875.84;;;28.56;37.82
23176;BME280;19910;42.652;23.332;2023-05-20T06:39:23;94841.06;;;29.86;32.87
23176;BME280;19910;42.652;23.332;2023-05-20T06:41:50;94841.81;;;30.37;33.61
23176;BME280;19910;42.652;23.332;2023-05-20T06:44:18;94850.59;;;29.34;33.52
23176;BME280;19910;42.652;23.332;2023-05-20T06:46:44;94850.56;;;27.07;37.63
23176;BME280;19910;42.652;23.332;2023-05-20T06:49:11;94853.03;;;27.05;36.17
23176;BME280;19910;42.652;23.332;2023-05-20T06:51:38;94856.50;;;26.46;36.68
23176;BME280;19910;42.652;23.332;2023-05-20T06:54:05;94852.25;;;26.61;38.30
23176;BME280;19910;42.652;23.332;2023-05-20T06:56:33;94847.97;;;28.56;36.01
23176;BME280;19910;42.652;23.332;2023-05-20T06:59:00;94850.59;;;28.76;34.79
23176;BME280;19910;42.652;23.332;2023-05-20T07:01:26;94861.63;;;27.86;35.18
23176;BME280;19910;42.652;23.332;2023-05-20T07:03:53;94860.22;;;27.02;37.08
23176;BME280;19910;42.652;23.332;2023-05-20T07:06:20;94867.09;;;26.74;36.98
23176;BME280;19910;42.652;23.332;2023-05-20T07:08:47;94863.94;;;26.72;37.45
23176;BME280;19910;42.652;23.332;2023-05-20T07:11:14;94855.31;;;26.67;37.14
23176;BME280;19910;42.652;23.332;2023-05-20T07:13:42;94858.41;;;26.02;38.14
23176;BME280;19910;42.652;23.332;2023-05-20T07:16:09;94859.22;;;25.76;37.73
23176;BME280;19910;42.652;23.332;2023-05-20T07:18:35;94862.69;;;24.89;39.78
23176;BME280;19910;42.652;23.332;2023-05-20T07:21:02;94866.38;;;25.73;39.61
23176;BME280;19910;42.652;23.332;2023-05-20T07:23:29;94854.88;;;25.98;39.56
23176;BME280;19910;42.652;23.332;2023-05-20T07:25:56;94845.09;;;25.90;37.75
23176;BME280;19910;42.652;23.332;2023-05-20T07:28:23;94840.91;;;26.29;38.46
23176;BME280;19910;42.652;23.332;2023-05-20T07:30:51;94842.94;;;27.11;36.35
23176;BME280;19910;42.652;23.332;2023-05-20T07:33:18;94841.75;;;26.49;37.46
23176;BME280;19910;42.652;23.332;2023-05-20T07:35:45;94842.75;;;26.59;37.49
23176;BME280;19910;42.652;23.332;2023-05-20T07:38:11;94846.22;;;25.69;37.83
23176;BME280;19910;42.652;23.332;2023-05-20T07:40:38;94848.78;;;25.83;38.49
23176;BME280;19910;42.652;23.332;2023-05-20T07:43:06;94852.31;;;25.57;37.96
23176;BME280;19910;42.652;23.332;2023-05-20T07:45:33;94844.34;;;25.32;38.92
23176;BME280;19910;42.652;23.332;2023-05-20T07:48:02;94868.16;;;24.99;39.65
23176;BME280;19910;42.652;23.332;2023-05-20T07:50:29;94861.59;;;24.45;39.78
23176;BME280;19910;42.652;23.332;2023-05-20T07:52:56;94858.63;;;25.58;39.78
23176;BME280;19910;42.652;23.332;2023-05-20T07:55:23;94842.09;;;26.04;38.53
23176;BME280;19910;42.652;23.332;2023-05-20T07:57:49;94841.91;;;25.38;39.40
23176;BME280;19910;42.652;23.332;2023-05-20T08:00:17;94845.72;;;26.25;38.60
23176;BME280;19910;42.652;23.332;2023-05-20T08:02:43;94838.22;;;25.98;39.14
23176;BME280;19910;42.652;23.332;2023-05-20T08:05:12;94841.47;;;25.39;38.73
23176;BME280;19910;42.652;23.332;2023-05-20T08:07:38;94852.53;;;24.75;40.20
23176;BME280;19910;42.652;23.332;2023-05-20T08:10:07;94846.16;;;24.82;40.96
23176;BME280;19910;42.652;23.332;2023-05-20T08:12:33;94838.75;;;25.05;40.09
23176;BME280;19910;42.652;23.332;2023-05-20T08:15:00;94841.03;;;25.71;38.60
23176;BME280;19910;42.652;23.332;2023-05-20T08:19:15;94840.75;;;24.67;40.65
23176;BME280;19910;42.652;23.332;2023-05-20T08:21:42;94838.41;;;25.30;40.16
23176;BME280;19910;42.652;23.332;2023-05-20T08:24:08;94838.44;;;25.00;40.45
23176;BME280;19910;42.652;23.332;2023-05-20T08:26:35;94833.03;;;25.20;40.85
23176;BME280;19910;42.652;23.332;2023-05-20T08:29:02;94832.47;;;25.59;40.18
23176;BME280;19910;42.652;23.332;2023-05-20T08:31:28;94828.00;;;25.68;41.88
23176;BME280;19910;42.652;23.332;2023-05-20T08:33:55;94824.72;;;25.46;40.18
23176;BME280;19910;42.652;23.332;2023-05-20T08:36:23;94841.75;;;24.50;41.14
23176;BME280;19910;42.652;23.332;2023-05-20T08:38:50;94836.00;;;24.68;40.57
23176;BME280;19910;42.652;23.332;2023-05-20T08:41:17;94830.06;;;24.32;41.09
23176;BME280;19910;42.652;23.332;2023-05-20T08:43:47;94832.69;;;24.80;40.25
23176;BME280;19910;42.652;23.332;2023-05-20T08:46:15;94835.97;;;24.71;43.10
23176;BME280;19910;42.652;23.332;2023-05-20T08:48:42;94829.09;;;23.53;43.53
23176;BME280;19910;42.652;23.332;2023-05-20T08:51:09;94840.22;;;23.38;44.37
23176;BME280;19910;42.652;23.332;2023-05-20T08:53:38;94830.19;;;22.96;44.61
23176;BME280;19910;42.652;23.332;2023-05-20T08:56:06;94848.91;;;22.32;45.17
23176;BME280;19910;42.652;23.332;2023-05-20T08:58:33;94856.41;;;22.35;45.53
23176;BME280;19910;42.652;23.332;2023-05-20T09:01:00;94829.94;;;22.48;45.26
23176;BME280;19910;42.652;23.332;2023-05-20T09:03:27;94836.69;;;22.40;46.47
23176;BME280;19910;42.652;23.332;2023-05-20T09:06:02;94827.97;;;22.42;46.18
23176;BME280;19910;42.652;23.332;2023-05-20T09:08:30;94826.44;;;22.37;46.30
23176;BME280;19910;42.652;23.332;2023-05-20T09:10:58;94831.88;;;22.65;46.25
23176;BME280;19910;42.652;23.332;2023-05-20T09:13:26;94836.22;;;22.66;44.29
23176;BME280;19910;42.652;23.332;2023-05-20T09:15:52;94827.25;;;22.27;46.45
23176;BME280;19910;42.652;23.332;2023-05-20T09:18:19;94824.78;;;22.57;45.97
23176;BME280;19910;42.652;23.332;2023-05-20T09:20:49;94810.16;;;22.67;45.83
23176;BME280;19910;42.652;23.332;2023-05-20T09:23:18;94815.66;;;22.71;46.11
23176;BME280;19910;42.652;23.332;2023-05-20T09:25:48;94806.59;;;22.78;45.72
23176;BME280;19910;42.652;23.332;2023-05-20T09:28:18;94796.06;;;23.24;45.74
23176;BME280;19910;42.652;23.332;2023-05-20T09:30:47;94802.25;;;23.50;44.64
23176;BME280;19910;42.652;23.332;2023-05-20T09:33:14;94810.50;;;22.87;43.58
23176;BME280;19910;42.652;23.332;2023-05-20T09:35:42;94795.69;;;22.35;45.75
23176;BME280;19910;42.652;23.332;2023-05-20T09:38:09;94804.59;;;22.85;46.27
23176;BME280;19910;42.652;23.332;2023-05-20T09:40:36;94806.53;;;22.95;45.61
23176;BME280;19910;42.652;23.332;2023-05-20T09:43:05;94823.69;;;22.37;47.05
23176;BME280;19910;42.652;23.332;2023-05-20T09:45:34;94798.03;;;22.40;47.26
23176;BME280;19910;42.652;23.332;2023-05-20T09:48:01;94795.63;;;22.53;47.05
23176;BME280;19910;42.652;23.332;2023-05-20T09:50:28;94793.38;;;22.09;47.85
23176;BME280;19910;42.652;23.332;2023-05-20T09:52:56;94781.13;;;22.24;48.79
23176;BME280;19910;42.652;23.332;2023-05-20T09:55:27;94786.97;;;22.47;47.08
23176;BME280;19910;42.652;23.332;2023-05-20T09:57:55;94787.84;;;22.12;47.84
23176;BME280;19910;42.652;23.332;2023-05-20T10:00:21;94786.28;;;22.08;47.51
23176;BME280;19910;42.652;23.332;2023-05-20T10:02:50;94778.56;;;22.76;46.83
23176;BME280;19910;42.652;23.332;2023-05-20T10:05:20;94766.16;;;23.12;46.19
23176;BME280;19910;42.652;23.332;2023-05-20T10:08:17;94762.25;;;23.10;46.71
23176;BME280;19910;42.652;23.332;2023-05-20T10:10:51;94759.28;;;22.61;46.41
23176;BME280;19910;42.652;23.332;2023-05-20T10:13:44;94765.25;;;22.53;47.29
23176;BME280;19910;42.652;23.332;2023-05-20T10:16:22;94767.16;;;22.66;44.81
23176;BME280;19910;42.652;23.332;2023-05-20T10:19:05;94748.97;;;22.80;45.57
23176;BME280;19910;42.652;23.332;2023-05-20T10:21:33;94761.75;;;23.22;44.73
23176;BME280;19910;42.652;23.332;2023-05-20T10:24:07;94774.31;;;22.53;46.12
23176;BME280;19910;42.652;23.332;2023-05-20T10:26:34;94758.69;;;21.83;48.17
23176;BME280;19910;42.652;23.332;2023-05-20T10:29:13;94744.44;;;22.27;47.36
23176;BME280;19910;42.652;23.332;2023-05-20T10:31:43;94748.69;;;22.46;45.33
23176;BME280;19910;42.652;23.332;2023-05-20T10:34:15;94736.47;;;22.50;43.00
23176;BME280;19910;42.652;23.332;2023-05-20T10:36:45;94734.06;;;22.56;43.32
23176;BME280;19910;42.652;23.332;2023-05-20T10:39:14;94755.78;;;22.50;42.48
23176;BME280;19910;42.652;23.332;2023-05-20T10:41:42;94751.50;;;22.39;43.39
23176;BME280;19910;42.652;23.332;2023-05-20T10:44:09;94727.84;;;22.34;44.33
23176;BME280;19910;42.652;23.332;2023-05-20T10:46:36;94725.16;;;23.00;43.20
23176;BME280;19910;42.652;23.332;2023-05-20T10:49:04;94720.00;;;23.09;42.51
23176;BME280;19910;42.652;23.332;2023-05-20T10:51:35;94739.56;;;22.59;41.17
23176;BME280;19910;42.652;23.332;2023-05-20T10:54:02;94716.84;;;22.27;42.80
23176;BME280;19910;42.652;23.332;2023-05-20T10:56:29;94709.75;;;22.19;43.53
23176;BME280;19910;42.652;23.332;2023-05-20T10:58:55;94711.34;;;22.20;44.20
23176;BME280;19910;42.652;23.332;2023-05-20T11:01:24;94719.91;;;22.50;44.18
23176;BME280;19910;42.652;23.332;2023-05-20T11:03:53;94702.47;;;22.60;43.04
23176;BME280;19910;42.652;23.332;2023-05-20T11:06:25;94707.78;;;23.03;43.40
23176;BME280;19910;42.652;23.332;2023-05-20T11:08:54;94716.16;;;22.92;42.94
23176;BME280;19910;42.652;23.332;2023-05-20T11:11:21;94709.81;;;22.08;44.15
23176;BME280;19910;42.652;23.332;2023-05-20T11:13:49;94703.09;;;22.13;44.10
23176;BME280;19910;42.652;23.332;2023-05-20T11:16:18;94697.69;;;22.79;43.70
23176;BME280;19910;42.652;23.332;2023-05-20T11:18:47;94693.59;;;23.01;42.12
23176;BME280;19910;42.652;23.332;2023-05-20T11:21:14;94688.13;;;22.90;42.30
23176;BME280;19910;42.652;23.332;2023-05-20T11:23:41;94691.56;;;22.32;43.06
23176;BME280;19910;42.652;23.332;2023-05-20T11:26:10;94690.06;;;22.17;43.37
23176;BME280;19910;42.652;23.332;2023-05-20T11:28:36;94698.69;;;22.29;43.86
23176;BME280;19910;42.652;23.332;2023-05-20T11:31:04;94658.38;;;22.46;43.42
23176;BME280;19910;42.652;23.332;2023-05-20T11:33:31;94669.53;;;22.25;45.00
23176;BME280;19910;42.652;23.332;2023-05-20T11:35:58;94703.47;;;22.15;44.22
23176;BME280;19910;42.652;23.332;2023-05-20T11:38:25;94675.53;;;21.91;44.06
23176;BME280;19910;42.652;23.332;2023-05-20T11:40:53;94672.81;;;21.77;43.86
23176;BME280;19910;42.652;23.332;2023-05-20T11:43:22;94664.50;;;21.98;44.04
23176;BME280;19910;42.652;23.332;2023-05-20T11:45:52;94670.78;;;22.13;43.16
23176;BME280;19910;42.652;23.332;2023-05-20T11:48:20;94665.28;;;21.95;44.63
23176;BME280;19910;42.652;23.332;2023-05-20T11:50:47;94656.22;;;21.91;45.74
23176;BME280;19910;42.652;23.332;2023-05-20T11:53:14;94665.28;;;21.88;47.47
23176;BME280;19910;42.652;23.332;2023-05-20T11:55:46;94669.59;;;22.11;45.36
23176;BME280;19910;42.652;23.332;2023-05-20T11:58:18;94666.09;;;21.85;44.22
23176;BME280;19910;42.652;23.332;2023-05-20T12:00:46;94656.25;;;21.77;45.82
23176;BME280;19910;42.652;23.332;2023-05-20T12:03:13;94662.97;;;21.83;47.01
23176;BME280;19910;42.652;23.332;2023-05-20T12:05:41;94663.34;;;21.75;47.52
23176;BME280;19910;42.652;23.332;2023-05-20T12:08:08;94661.06;;;21.52;47.69
23176;BME280;19910;42.652;23.332;2023-05-20T12:10:35;94664.22;;;21.15;48.51
23176;BME280;19910;42.652;23.332;2023-05-20T12:13:02;94659.50;;;21.01;49.36
23176;BME280;19910;42.652;23.332;2023-05-20T12:15:33;94657.50;;;20.73;50.47
23176;BME280;19910;42.652;23.332;2023-05-20T12:18:01;94665.75;;;20.63;50.06
23176;BME280;19910;42.652;23.332;2023-05-20T12:20:29;94657.84;;;20.50;50.80
23176;BME280;19910;42.652;23.332;2023-05-20T12:22:58;94669.63;;;20.51;50.88
23176;BME280;19910;42.652;23.332;2023-05-20T12:25:25;94668.00;;;20.29;51.32
23176;BME280;19910;42.652;23.332;2023-05-20T12:27:52;94702.50;;;20.12;52.07
23176;BME280;19910;42.652;23.332;2023-05-20T12:30:20;94725.88;;;19.23;52.88
23176;BME280;19910;42.652;23.332;2023-05-20T12:32:48;94720.50;;;18.93;54.36
23176;BME280;19910;42.652;23.332;2023-05-20T12:35:18;94718.09;;;18.84;55.23
23176;BME280;19910;42.652;23.332;2023-05-20T12:37:45;94718.19;;;18.24;57.75
23176;BME280;19910;42.652;23.332;2023-05-20T12:40:12;94715.28;;;18.10;58.33
23176;BME280;19910;42.652;23.332;2023-05-20T12:42:39;94721.31;;;18.23;57.35
23176;BME280;19910;42.652;23.332;2023-05-20T12:45:07;94718.16;;;18.21;57.87
23176;BME280;19910;42.652;23.332;2023-05-20T12:47:35;94719.09;;;18.35;58.35
23176;BME280;19910;42.652;23.332;2023-05-20T12:50:02;94723.06;;;18.38;58.17
23176;BME280;19910;42.652;23.332;2023-05-20T12:52:30;94725.00;;;18.37;57.70
23176;BME280;19910;42.652;23.332;2023-05-20T12:54:57;94714.66;;;18.57;57.26
23176;BME280;19910;42.652;23.332;2023-05-20T12:57:24;94710.91;;;18.72;56.75